createdAt,value
2023-03-25T00:00:20.064Z,5.6
2023-03-25T00:05:25.807Z,6.3
2023-03-25T00:10:30.557Z,5.5
2023-03-25T00:15:18.999Z,5.9
2023-03-25T00:20:25.676Z,6.4
2023-03-25T00:25:31.307Z,6.1
2023-03-25T00:30:19.748Z,4.3
2023-03-25T00:35:27.882Z,3.9
2023-03-25T00:40:32.143Z,4.4
2023-03-25T00:45:20.885Z,3.5
2023-03-25T00:50:28.054Z,4.6
2023-03-25T00:55:32.980Z,3.9
2023-03-25T01:00:23.955Z,5.0
2023-03-25T01:05:28.152Z,4.8
2023-03-25T01:10:17.179Z,5.0
2023-03-25T01:15:22.963Z,6.0
2023-03-25T01:20:29.735Z,6.0
2023-03-25T01:25:18.408Z,5.2
2023-03-25T01:30:24.632Z,9.4
2023-03-25T01:35:30.657Z,7.4
2023-03-25T01:40:19.667Z,5.0
2023-03-25T01:45:25.780Z,4.8
2023-03-25T01:50:31.579Z,5.5
2023-03-25T01:55:20.858Z,4.4
2023-03-25T02:00:28.373Z,4.9
2023-03-25T02:05:32.475Z,6.9
2023-03-25T02:10:20.932Z,9.0
2023-03-25T02:15:27.253Z,7.8
2023-03-25T02:20:34.435Z,6.7
2023-03-25T02:25:22.139Z,7.3
2023-03-25T02:30:27.785Z,7.8
2023-03-25T02:35:17.078Z,7.4
2023-03-25T02:40:23.020Z,6.6
2023-03-25T02:45:28.974Z,7.5
2023-03-25T02:50:18.556Z,7.4
2023-03-25T02:55:24.127Z,7.8
2023-03-25T03:00:31.260Z,7.6
2023-03-25T03:05:19.799Z,5.8
2023-03-25T03:10:25.469Z,5.9
2023-03-25T03:15:31.498Z,7.2
2023-03-25T03:20:21.322Z,6.8
2023-03-25T03:25:26.696Z,6.5
2023-03-25T03:30:31.742Z,6.8
2023-03-25T03:35:20.591Z,5.7
2023-03-25T03:40:27.952Z,4.9
2023-03-25T03:45:32.831Z,5.6
2023-03-25T03:50:21.853Z,4.9
2023-03-25T03:55:27.776Z,6.5
2023-03-25T04:00:18.168Z,5.0
2023-03-25T04:05:23.067Z,5.0
2023-03-25T04:10:28.984Z,6.4
2023-03-25T04:15:17.859Z,6.3
2023-03-25T04:20:24.239Z,5.2
2023-03-25T04:25:30.128Z,6.7
2023-03-25T04:30:19.232Z,6.6
2023-03-25T04:35:25.191Z,5.3
2023-03-25T04:40:31.319Z,5.1
2023-03-25T04:45:20.408Z,5.8
2023-03-25T04:50:27.320Z,5.7
2023-03-25T04:55:32.405Z,7.2
2023-03-25T05:00:26.766Z,5.2
2023-03-25T05:05:27.458Z,4.8
2023-03-25T05:10:33.382Z,3.8
2023-03-25T05:15:22.467Z,9.3
2023-03-25T05:20:28.637Z,6.2
2023-03-25T05:25:17.448Z,4.9
2023-03-25T05:30:23.330Z,5.7
2023-03-25T05:35:29.370Z,6.0
2023-03-25T05:40:18.501Z,5.3
2023-03-25T05:45:24.514Z,7.4
2023-03-25T05:50:30.538Z,5.2
2023-03-25T05:55:20.819Z,4.1
2023-03-25T06:00:28.097Z,4.5
2023-03-25T06:05:32.163Z,4.6
2023-03-25T06:10:20.793Z,4.6
2023-03-25T06:15:26.954Z,3.9
2023-03-25T06:20:19.309Z,4.4
2023-03-25T06:25:21.904Z,5.5
2023-03-25T06:30:27.451Z,5.1
2023-03-25T06:35:16.518Z,5.3
2023-03-25T06:40:24.840Z,5.3
2023-03-25T06:45:28.859Z,3.8
2023-03-25T06:50:17.803Z,4.7
2023-03-25T06:55:23.926Z,4.6
2023-03-25T07:00:31.823Z,3.2
2023-03-25T07:05:18.943Z,4.2
2023-03-25T07:10:24.694Z,4.3
2023-03-25T07:15:30.932Z,4.6
2023-03-25T07:20:20.151Z,4.7
2023-03-25T07:25:26.016Z,4.1
2023-03-25T07:30:31.867Z,5.0
2023-03-25T07:35:20.883Z,3.5
2023-03-25T07:40:26.787Z,5.2
2023-03-25T07:45:44.207Z,7.3
2023-03-25T07:50:23.799Z,4.3
2023-03-25T07:55:27.981Z,7.7
2023-03-25T08:00:20.336Z,5.9
2023-03-25T08:05:23.176Z,5.8
2023-03-25T08:10:28.955Z,5.1
2023-03-25T08:15:18.023Z,5.2
2023-03-25T08:20:26.083Z,4.5
2023-03-25T08:25:30.352Z,5.4
2023-03-25T08:30:19.069Z,5.8
2023-03-25T08:35:25.218Z,5.0
2023-03-25T08:40:31.205Z,7.8
2023-03-25T08:45:20.261Z,8.7
2023-03-25T08:50:26.542Z,6.3
2023-03-25T08:55:32.528Z,5.9
2023-03-25T09:00:23.078Z,4.3
2023-03-25T09:05:27.316Z,6.4
2023-03-25T09:10:33.325Z,5.7
2023-03-25T09:15:22.443Z,6.8
2023-03-25T09:20:28.434Z,7.2
2023-03-25T09:25:17.647Z,6.0
2023-03-25T09:30:23.428Z,5.8
2023-03-25T09:35:29.483Z,5.0
2023-03-25T09:40:19.830Z,6.2
2023-03-25T09:45:24.754Z,6.4
2023-03-25T09:50:30.853Z,6.4
2023-03-25T09:55:19.653Z,6.4
2023-03-25T10:00:30.218Z,6.4
2023-03-25T10:05:31.895Z,6.4
2023-03-25T10:10:20.682Z,6.4
2023-03-25T10:15:26.784Z,6.4
2023-03-25T10:20:32.936Z,6.4
2023-03-25T10:25:21.861Z,6.4
2023-03-25T10:30:27.957Z,6.4
2023-03-25T10:35:16.832Z,6.4
2023-03-25T10:40:23.825Z,6.4
2023-03-25T10:45:29.154Z,6.4
2023-03-25T10:50:18.126Z,6.4
2023-03-25T10:55:25.256Z,6.4
2023-03-25T11:00:30.532Z,6.4
2023-03-25T11:05:19.904Z,6.4
2023-03-25T11:10:25.525Z,6.4
2023-03-25T11:15:31.606Z,6.4
2023-03-25T11:20:21.705Z,6.4
2023-03-25T11:25:26.351Z,6.4
2023-03-25T11:30:32.631Z,6.4
2023-03-25T11:35:21.823Z,6.4
2023-03-25T11:40:28.023Z,6.4
2023-03-25T11:45:17.917Z,6.4
2023-03-25T11:50:22.692Z,6.4
2023-03-25T11:55:29.014Z,6.4
2023-03-25T12:00:18.256Z,6.4
2023-03-25T12:05:23.914Z,6.4
2023-03-25T12:10:29.465Z,6.4
2023-03-25T12:15:18.713Z,6.4
2023-03-25T12:20:26.817Z,6.4
2023-03-25T12:25:30.779Z,6.4
2023-03-25T12:30:20.203Z,6.4
2023-03-25T12:35:25.820Z,5.9
2023-03-25T12:40:33.751Z,3.5
2023-03-25T12:45:22.215Z,4.2
2023-03-25T12:50:27.120Z,4.2
2023-03-25T12:55:33.259Z,4.2
2023-03-25T13:00:22.245Z,5.3
2023-03-25T13:05:27.381Z,3.2
2023-03-25T13:10:16.498Z,3.7
2023-03-25T13:15:27.317Z,3.5
2023-03-25T13:20:30.179Z,4.6
2023-03-25T13:25:18.032Z,3.5
2023-03-25T13:30:23.818Z,3.4
2023-03-25T13:35:29.963Z,4.7
2023-03-25T13:40:20.452Z,4.7
2023-03-25T13:45:24.904Z,4.4
2023-03-25T13:50:31.015Z,4.6
2023-03-25T13:55:21.273Z,4.8
2023-03-25T14:00:29.690Z,5.1
2023-03-25T14:05:32.766Z,4.0
2023-03-25T14:10:20.614Z,2.6
2023-03-25T14:15:26.668Z,5.1
2023-03-25T14:20:32.940Z,6.3
2023-03-25T14:25:21.647Z,10.5
2023-03-25T14:30:27.507Z,4.3
2023-03-25T14:35:16.760Z,5.1
2023-03-25T14:40:22.774Z,4.3
2023-03-25T14:45:28.849Z,3.8
2023-03-25T14:50:19.814Z,4.7
2023-03-25T14:55:23.798Z,8.2
2023-03-25T15:00:31.299Z,10.2
2023-03-25T15:05:18.411Z,8.9
2023-03-25T15:10:24.584Z,6.9
2023-03-25T15:15:30.298Z,6.7
2023-03-25T15:20:20.993Z,9.2
2023-03-25T15:25:25.462Z,19.0
2023-03-25T15:30:32.237Z,31.7
2023-03-25T15:35:21.013Z,39.3
2023-03-25T15:40:27.275Z,15.7
2023-03-25T15:45:33.247Z,17.7
2023-03-25T15:50:22.305Z,28.5
2023-03-25T15:55:28.277Z,18.8
2023-03-25T16:00:20.246Z,11.9
2023-03-25T16:05:23.066Z,4.2
2023-03-25T16:10:28.933Z,5.1
2023-03-25T16:15:17.774Z,5.2
2023-03-25T16:20:24.134Z,8.2
2023-03-25T16:25:30.052Z,10.1
2023-03-25T16:30:18.460Z,36.8
2023-03-25T16:35:24.662Z,14.4
2023-03-25T16:40:30.790Z,5.5
2023-03-25T16:45:19.641Z,5.1
2023-03-25T16:50:25.852Z,5.2
2023-03-25T16:55:31.873Z,6.8
2023-03-25T17:00:25.518Z,5.3
2023-03-25T17:05:27.356Z,4.1
2023-03-25T17:10:33.354Z,5.9
2023-03-25T17:15:22.397Z,5.5
2023-03-25T17:20:29.266Z,5.1
2023-03-25T17:25:17.331Z,6.6
2023-03-25T17:30:22.906Z,4.4
2023-03-25T17:35:29.021Z,5.4
2023-03-25T17:40:18.063Z,6.4
2023-03-25T17:45:24.144Z,6.2
2023-03-25T17:50:30.020Z,5.4
2023-03-25T17:55:19.442Z,5.3
2023-03-25T18:00:28.381Z,6.5
2023-03-25T18:05:30.750Z,7.7
2023-03-25T18:10:19.479Z,8.3
2023-03-25T18:15:25.570Z,6.9
2023-03-25T18:20:31.668Z,5.4
2023-03-25T18:25:20.479Z,5.8
2023-03-25T18:30:26.460Z,9.2
2023-03-25T18:35:32.682Z,6.5
2023-03-25T18:40:21.734Z,12.2
2023-03-25T18:45:29.689Z,8.2
2023-03-25T18:50:16.627Z,8.2
2023-03-25T18:55:22.824Z,12.5
2023-03-25T19:00:30.590Z,8.0
2023-03-25T19:05:17.577Z,6.7
2023-03-25T19:10:23.692Z,5.9
2023-03-25T19:15:29.638Z,11.6
2023-03-25T19:20:18.756Z,23.2
2023-03-25T19:25:24.758Z,7.8
2023-03-25T19:30:31.896Z,8.2
2023-03-25T19:35:20.274Z,9.2
2023-03-25T19:40:26.349Z,5.6
2023-03-25T19:45:32.394Z,6.2
2023-03-25T19:50:21.219Z,6.9
2023-03-25T19:55:27.453Z,6.2
2023-03-25T20:00:35.789Z,6.4
2023-03-25T20:05:22.048Z,6.2
2023-03-25T20:10:28.192Z,6.4
2023-03-25T20:15:16.963Z,4.9
2023-03-25T20:20:24.330Z,6.0
2023-03-25T20:25:29.227Z,6.2
2023-03-25T20:30:17.557Z,5.2
2023-03-25T20:35:23.635Z,6.5
2023-03-25T20:40:41.524Z,8.0
2023-03-25T20:45:18.713Z,5.9
2023-03-25T20:50:24.943Z,7.3
2023-03-25T20:55:30.980Z,8.5
2023-03-25T21:00:23.334Z,9.0
2023-03-25T21:05:25.368Z,7.7
2023-03-25T21:10:31.285Z,7.7
2023-03-25T21:15:20.328Z,7.0
2023-03-25T21:20:26.606Z,6.9
2023-03-25T21:25:32.423Z,6.1
2023-03-25T21:30:21.868Z,6.1
2023-03-25T21:35:27.812Z,5.3
2023-03-25T21:40:17.103Z,5.8
2023-03-25T21:45:22.872Z,4.8
2023-03-25T21:50:28.952Z,5.0
2023-03-25T21:55:18.169Z,4.6
2023-03-25T22:00:27.123Z,4.9
2023-03-25T22:05:29.610Z,5.5
2023-03-25T22:10:18.575Z,5.4
2023-03-25T22:15:24.724Z,4.2
2023-03-25T22:20:30.632Z,4.3
2023-03-25T22:25:19.589Z,4.8
2023-03-25T22:30:25.787Z,4.1
2023-03-25T22:35:31.733Z,3.7
2023-03-25T22:40:21.422Z,3.2
2023-03-25T22:45:26.812Z,4.4
2023-03-25T22:50:32.845Z,5.2
2023-03-25T22:55:22.028Z,4.6
2023-03-25T23:00:29.533Z,4.7
2023-03-25T23:05:16.952Z,3.8
2023-03-25T23:10:22.761Z,3.6
2023-03-25T23:15:28.777Z,5.9
2023-03-25T23:20:17.937Z,4.4
2023-03-25T23:25:23.686Z,5.3
2023-03-25T23:30:29.445Z,5.6
2023-03-25T23:35:18.518Z,5.1
2023-03-25T23:40:25.718Z,5.0
2023-03-25T23:45:30.608Z,6.0
2023-03-25T23:50:19.780Z,4.8
2023-03-25T23:55:25.616Z,5.4
